Terminal Aerodrome Forecast
Issued by NWS

Home | Current Version | Previous Version | Text Only | Print | Product List | Glossary On
Versions: 1 2 3 4 5 6 7 8 9 10 11 12 13 14 15 16 17
693
FTUS42 KMHX 071740
TAFISO
TAF
KISO 071740Z 0718/0818 36006KT P6SM SKC
     FM080600 00000KT P6SM SCT007 BKN050
     FM081500 23006KT P6SM BKN025
     FM081700 29008KT P6SM BKN020
      AMD LTD TO CLD VIS AND WIND=

USA.gov is the U.S. government's official web portal to all federal, state and local government web resources and services.